sensor_id;sensor_type;location;lat;lon;timestamp;pressure;altitude;pressure_sealevel;temperature;humidity
80482;BME280;69797;43.864;21.410;2023-09-19T00:00:21;100044.22;;;20.51;61.90
80482;BME280;69797;43.864;21.410;2023-09-19T00:02:57;100068.84;;;20.68;61.87
80482;BME280;69797;43.864;21.410;2023-09-19T00:05:29;100056.13;;;20.57;62.12
80482;BME280;69797;43.864;21.410;2023-09-19T00:07:57;100069.47;;;20.60;62.54
80482;BME280;69797;43.864;21.410;2023-09-19T00:10:28;100048.16;;;20.45;62.39
80482;BME280;69797;43.864;21.410;2023-09-19T00:12:58;100046.72;;;20.48;62.64
80482;BME280;69797;43.864;21.410;2023-09-19T00:15:27;100058.94;;;20.57;63.08
80482;BME280;69797;43.864;21.410;2023-09-19T00:17:57;100039.56;;;20.42;62.52
80482;BME280;69797;43.864;21.410;2023-09-19T00:20:23;100064.72;;;20.60;63.28
80482;BME280;69797;43.864;21.410;2023-09-19T00:22:51;100068.91;;;20.63;63.25
80482;BME280;69797;43.864;21.410;2023-09-19T00:25:20;100058.94;;;20.57;63.11
80482;BME280;69797;43.864;21.410;2023-09-19T00:27:47;100048.63;;;20.57;63.70
80482;BME280;69797;43.864;21.410;2023-09-19T00:30:16;100057.75;;;20.63;63.57
80482;BME280;69797;43.864;21.410;2023-09-19T00:32:48;100022.63;;;20.38;63.29
80482;BME280;69797;43.864;21.410;2023-09-19T00:35:15;100051.09;;;20.59;63.79
80482;BME280;69797;43.864;21.410;2023-09-19T00:37:42;100076.13;;;20.64;63.32
80482;BME280;69797;43.864;21.410;2023-09-19T00:40:10;100047.53;;;20.53;63.31
80482;BME280;69797;43.864;21.410;2023-09-19T00:42:43;100050.31;;;20.53;63.45
80482;BME280;69797;43.864;21.410;2023-09-19T00:45:11;100037.53;;;20.47;63.39
80482;BME280;69797;43.864;21.410;2023-09-19T00:47:42;100042.03;;;20.43;63.91
80482;BME280;69797;43.864;21.410;2023-09-19T00:50:11;100047.28;;;20.50;64.45
80482;BME280;69797;43.864;21.410;2023-09-19T00:52:42;100034.81;;;20.42;64.24
80482;BME280;69797;43.864;21.410;2023-09-19T00:55:11;100024.78;;;20.41;64.31
80482;BME280;69797;43.864;21.410;2023-09-19T00:57:41;100032.53;;;20.49;64.03
80482;BME280;69797;43.864;21.410;2023-09-19T01:00:09;100044.69;;;20.58;64.09
80482;BME280;69797;43.864;21.410;2023-09-19T01:02:45;100042.22;;;20.57;64.04
80482;BME280;69797;43.864;21.410;2023-09-19T01:05:12;100034.75;;;20.52;65.05
80482;BME280;69797;43.864;21.410;2023-09-19T01:07:39;100041.91;;;20.58;64.21
80482;BME280;69797;43.864;21.410;2023-09-19T01:10:12;100033.06;;;20.56;64.29
80482;BME280;69797;43.864;21.410;2023-09-19T01:13:19;100040.50;;;20.61;64.22
80482;BME280;69797;43.864;21.410;2023-09-19T01:15:53;100033.81;;;20.62;63.88
80482;BME280;69797;43.864;21.410;2023-09-19T01:18:40;100015.56;;;20.51;63.91
80482;BME280;69797;43.864;21.410;2023-09-19T01:21:20;100034.13;;;20.60;64.16
80482;BME280;69797;43.864;21.410;2023-09-19T01:24:31;100032.72;;;20.63;64.06
80482;BME280;69797;43.864;21.410;2023-09-19T01:29:39;100021.38;;;20.54;64.19
80482;BME280;69797;43.864;21.410;2023-09-19T01:32:13;100006.38;;;20.50;63.95
80482;BME280;69797;43.864;21.410;2023-09-19T01:34:46;100033.88;;;20.57;64.32
80482;BME280;69797;43.864;21.410;2023-09-19T01:37:17;100037.78;;;20.56;63.88
80482;BME280;69797;43.864;21.410;2023-09-19T01:39:55;100022.25;;;20.45;63.96
80482;BME280;69797;43.864;21.410;2023-09-19T01:47:44;100011.47;;;20.38;64.04
80482;BME280;69797;43.864;21.410;2023-09-19T01:53:15;100028.06;;;20.53;63.89
80482;BME280;69797;43.864;21.410;2023-09-19T01:55:49;100013.31;;;20.48;63.88
80482;BME280;69797;43.864;21.410;2023-09-19T02:01:03;100026.09;;;20.54;64.10
80482;BME280;69797;43.864;21.410;2023-09-19T02:03:34;100016.09;;;20.48;64.04
80482;BME280;69797;43.864;21.410;2023-09-19T02:06:02;100029.72;;;20.54;64.07
80482;BME280;69797;43.864;21.410;2023-09-19T02:08:30;100010.03;;;20.46;63.84
80482;BME280;69797;43.864;21.410;2023-09-19T02:10:59;100032.75;;;20.58;63.84
80482;BME280;69797;43.864;21.410;2023-09-19T02:13:26;100017.78;;;20.49;63.49
80482;BME280;69797;43.864;21.410;2023-09-19T02:15:54;100025.53;;;20.57;64.01
80482;BME280;69797;43.864;21.410;2023-09-19T02:18:22;100013.06;;;20.49;63.53
80482;BME280;69797;43.864;21.410;2023-09-19T02:20:49;100029.44;;;20.56;63.33
80482;BME280;69797;43.864;21.410;2023-09-19T02:23:17;100024.19;;;20.49;63.47
80482;BME280;69797;43.864;21.410;2023-09-19T02:25:54;99996.78;;;20.32;63.20
80482;BME280;69797;43.864;21.410;2023-09-19T02:28:21;100034.47;;;20.54;63.41
80482;BME280;69797;43.864;21.410;2023-09-19T02:30:49;100028.88;;;20.54;63.48
80482;BME280;69797;43.864;21.410;2023-09-19T02:33:16;100028.88;;;20.54;63.47
80482;BME280;69797;43.864;21.410;2023-09-19T02:35:44;100013.06;;;20.44;63.52
80482;BME280;69797;43.864;21.410;2023-09-19T02:38:11;100032.50;;;20.54;62.99
80482;BME280;69797;43.864;21.410;2023-09-19T02:40:38;100032.50;;;20.54;63.09
80482;BME280;69797;43.864;21.410;2023-09-19T02:43:05;100042.81;;;20.54;63.23
80482;BME280;69797;43.864;21.410;2023-09-19T02:45:35;100041.16;;;20.53;62.85
80482;BME280;69797;43.864;21.410;2023-09-19T02:48:02;100018.63;;;20.49;62.60
80482;BME280;69797;43.864;21.410;2023-09-19T02:50:29;100024.94;;;20.60;62.63
80482;BME280;69797;43.864;21.410;2023-09-19T02:52:56;100016.09;;;20.53;62.42
80482;BME280;69797;43.864;21.410;2023-09-19T02:55:23;99984.00;;;20.31;62.43
80482;BME280;69797;43.864;21.410;2023-09-19T02:57:52;100012.22;;;20.49;62.30
80482;BME280;69797;43.864;21.410;2023-09-19T03:00:21;100008.06;;;20.46;62.30
80482;BME280;69797;43.864;21.410;2023-09-19T03:02:55;100009.72;;;20.47;62.26
80482;BME280;69797;43.864;21.410;2023-09-19T03:05:23;100010.53;;;20.48;62.67
80482;BME280;69797;43.864;21.410;2023-09-19T03:07:51;100029.94;;;20.63;62.39
80482;BME280;69797;43.864;21.410;2023-09-19T03:10:19;100029.31;;;20.66;62.60
80482;BME280;69797;43.864;21.410;2023-09-19T03:12:47;100031.53;;;20.69;62.03
80482;BME280;69797;43.864;21.410;2023-09-19T03:15:15;100013.47;;;20.67;61.91
80482;BME280;69797;43.864;21.410;2023-09-19T03:17:47;100026.50;;;20.71;61.71
80482;BME280;69797;43.864;21.410;2023-09-19T03:20:14;100020.16;;;20.66;61.70
80482;BME280;69797;43.864;21.410;2023-09-19T03:22:44;100004.66;;;20.59;61.51
80482;BME280;69797;43.864;21.410;2023-09-19T03:25:12;99994.34;;;20.60;61.17
80482;BME280;69797;43.864;21.410;2023-09-19T03:27:41;99995.19;;;20.55;60.93
80482;BME280;69797;43.864;21.410;2023-09-19T03:30:08;99993.56;;;20.49;61.20
80482;BME280;69797;43.864;21.410;2023-09-19T03:32:35;99986.38;;;20.43;61.40
80482;BME280;69797;43.864;21.410;2023-09-19T03:35:03;100003.84;;;20.54;61.35
80482;BME280;69797;43.864;21.410;2023-09-19T03:37:33;99992.78;;;20.44;61.26
80482;BME280;69797;43.864;21.410;2023-09-19T03:40:00;99992.75;;;20.49;61.44
80482;BME280;69797;43.864;21.410;2023-09-19T03:42:31;100000.25;;;20.53;61.48
80482;BME280;69797;43.864;21.410;2023-09-19T03:44:58;100007.75;;;20.53;61.45
80482;BME280;69797;43.864;21.410;2023-09-19T03:47:27;99994.44;;;20.50;61.66
80482;BME280;69797;43.864;21.410;2023-09-19T03:49:54;99986.31;;;20.53;61.85
80482;BME280;69797;43.864;21.410;2023-09-19T03:52:21;99986.09;;;20.50;61.81
80482;BME280;69797;43.864;21.410;2023-09-19T03:54:47;100002.38;;;20.62;64.46
80482;BME280;69797;43.864;21.410;2023-09-19T03:57:15;99976.56;;;20.56;61.93
80482;BME280;69797;43.864;21.410;2023-09-19T03:59:47;99969.94;;;20.47;61.93
80482;BME280;69797;43.864;21.410;2023-09-19T04:02:13;99975.19;;;20.48;61.67
80482;BME280;69797;43.864;21.410;2023-09-19T04:04:52;99952.25;;;20.32;62.67
80482;BME280;69797;43.864;21.410;2023-09-19T04:07:19;99941.88;;;20.14;63.05
80482;BME280;69797;43.864;21.410;2023-09-19T04:09:51;99969.09;;;20.17;63.21
80482;BME280;69797;43.864;21.410;2023-09-19T04:12:21;99966.16;;;20.03;63.53
80482;BME280;69797;43.864;21.410;2023-09-19T04:14:49;99950.13;;;19.90;63.88
80482;BME280;69797;43.864;21.410;2023-09-19T04:17:16;99955.97;;;19.88;63.67
80482;BME280;69797;43.864;21.410;2023-09-19T04:19:43;99978.03;;;20.09;63.58
80482;BME280;69797;43.864;21.410;2023-09-19T04:22:12;99977.44;;;20.17;63.29
80482;BME280;69797;43.864;21.410;2023-09-19T04:24:39;99979.59;;;20.25;63.00
80482;BME280;69797;43.864;21.410;2023-09-19T04:27:06;99953.19;;;20.23;62.75
80482;BME280;69797;43.864;21.410;2023-09-19T04:29:33;99947.94;;;20.21;65.47
80482;BME280;69797;43.864;21.410;2023-09-19T04:32:01;99952.31;;;20.27;62.46
80482;BME280;69797;43.864;21.410;2023-09-19T04:34:31;99972.28;;;20.34;62.25
80482;BME280;69797;43.864;21.410;2023-09-19T04:36:57;99970.91;;;20.32;62.10
80482;BME280;69797;43.864;21.410;2023-09-19T04:39:27;99984.50;;;20.39;62.14
80482;BME280;69797;43.864;21.410;2023-09-19T04:41:53;99997.81;;;20.42;61.94
80482;BME280;69797;43.864;21.410;2023-09-19T04:44:21;99980.63;;;20.34;64.27
80482;BME280;69797;43.864;21.410;2023-09-19T04:46:48;100008.59;;;20.53;62.28
80482;BME280;69797;43.864;21.410;2023-09-19T04:49:15;100002.19;;;20.53;62.14
80482;BME280;69797;43.864;21.410;2023-09-19T04:51:41;100001.06;;;20.54;61.75
80482;BME280;69797;43.864;21.410;2023-09-19T04:54:09;100011.03;;;20.60;61.72
80482;BME280;69797;43.864;21.410;2023-09-19T04:56:36;99997.69;;;20.57;61.57
80482;BME280;69797;43.864;21.410;2023-09-19T04:59:02;100007.34;;;20.65;61.18
80482;BME280;69797;43.864;21.410;2023-09-19T05:01:29;99988.94;;;20.69;60.98
80482;BME280;69797;43.864;21.410;2023-09-19T05:03:56;100003.19;;;20.91;60.84
80482;BME280;69797;43.864;21.410;2023-09-19T05:06:23;100004.47;;;20.99;60.47
80482;BME280;69797;43.864;21.410;2023-09-19T05:08:50;99991.69;;;20.98;59.97
80482;BME280;69797;43.864;21.410;2023-09-19T05:11:20;99987.69;;;20.85;59.76
80482;BME280;69797;43.864;21.410;2023-09-19T05:13:49;99975.81;;;20.74;60.63
80482;BME280;69797;43.864;21.410;2023-09-19T05:16:20;99989.97;;;20.78;60.10
80482;BME280;69797;43.864;21.410;2023-09-19T05:18:47;99996.72;;;20.72;60.15
80482;BME280;69797;43.864;21.410;2023-09-19T05:21:14;99991.44;;;20.70;60.98
80482;BME280;69797;43.864;21.410;2023-09-19T05:23:41;99974.66;;;20.51;61.15
80482;BME280;69797;43.864;21.410;2023-09-19T05:26:08;100002.03;;;20.68;60.78
80482;BME280;69797;43.864;21.410;2023-09-19T05:28:37;99979.88;;;20.58;62.45
80482;BME280;69797;43.864;21.410;2023-09-19T05:31:04;99986.22;;;20.64;60.66
80482;BME280;69797;43.864;21.410;2023-09-19T05:33:32;99965.13;;;20.57;61.43
80482;BME280;69797;43.864;21.410;2023-09-19T05:35:59;99980.41;;;20.60;62.07
80482;BME280;69797;43.864;21.410;2023-09-19T05:38:26;99996.41;;;20.73;61.51
80482;BME280;69797;43.864;21.410;2023-09-19T05:40:54;99980.00;;;20.72;61.39
80482;BME280;69797;43.864;21.410;2023-09-19T05:43:21;99998.56;;;20.81;61.16
80482;BME280;69797;43.864;21.410;2023-09-19T05:45:48;99980.25;;;20.75;64.31
80482;BME280;69797;43.864;21.410;2023-09-19T05:48:19;99973.81;;;21.04;60.55
80482;BME280;69797;43.864;21.410;2023-09-19T05:50:47;100006.50;;;21.41;59.47
80482;BME280;69797;43.864;21.410;2023-09-19T05:53:15;100000.75;;;21.57;58.64
80482;BME280;69797;43.864;21.410;2023-09-19T05:55:42;99990.06;;;21.64;58.95
80482;BME280;69797;43.864;21.410;2023-09-19T05:58:10;100003.00;;;21.73;58.46
80482;BME280;69797;43.864;21.410;2023-09-19T06:00:37;99981.00;;;21.72;58.42
80482;BME280;69797;43.864;21.410;2023-09-19T06:03:06;100009.72;;;21.91;57.95
80482;BME280;69797;43.864;21.410;2023-09-19T06:05:33;100002.09;;;21.97;57.42
80482;BME280;69797;43.864;21.410;2023-09-19T06:08:00;99998.28;;;21.93;56.74
80482;BME280;69797;43.864;21.410;2023-09-19T06:10:27;99988.22;;;21.92;57.65
80482;BME280;69797;43.864;21.410;2023-09-19T06:12:55;99999.84;;;21.99;56.96
80482;BME280;69797;43.864;21.410;2023-09-19T06:15:25;99980.72;;;21.92;56.98
80482;BME280;69797;43.864;21.410;2023-09-19T06:17:53;100007.75;;;22.11;56.15
80482;BME280;69797;43.864;21.410;2023-09-19T06:20:25;100008.88;;;22.10;57.04
80482;BME280;69797;43.864;21.410;2023-09-19T06:22:53;100007.53;;;22.07;55.29
80482;BME280;69797;43.864;21.410;2023-09-19T06:25:21;99983.72;;;21.96;56.39
80482;BME280;69797;43.864;21.410;2023-09-19T06:27:50;99986.19;;;21.97;56.79
80482;BME280;69797;43.864;21.410;2023-09-19T06:30:22;99989.22;;;22.01;56.05
80482;BME280;69797;43.864;21.410;2023-09-19T06:32:58;100008.00;;;22.14;54.80
80482;BME280;69797;43.864;21.410;2023-09-19T06:35:27;100009.28;;;22.22;56.05
80482;BME280;69797;43.864;21.410;2023-09-19T06:37:56;100001.72;;;22.22;56.13
80482;BME280;69797;43.864;21.410;2023-09-19T06:40:25;100005.50;;;22.32;55.88
80482;BME280;69797;43.864;21.410;2023-09-19T06:42:53;100007.28;;;22.41;55.79
80482;BME280;69797;43.864;21.410;2023-09-19T06:45:20;99992.41;;;22.46;55.24
80482;BME280;69797;43.864;21.410;2023-09-19T06:47:50;100019.75;;;22.77;56.54
80482;BME280;69797;43.864;21.410;2023-09-19T06:50:21;100000.16;;;22.82;55.65
80482;BME280;69797;43.864;21.410;2023-09-19T06:52:51;100021.19;;;23.07;54.73
80482;BME280;69797;43.864;21.410;2023-09-19T06:55:19;99988.09;;;23.00;55.10
80482;BME280;69797;43.864;21.410;2023-09-19T06:57:47;100017.34;;;23.30;54.96
80482;BME280;69797;43.864;21.410;2023-09-19T07:00:15;100019.53;;;23.33;54.41
80482;BME280;69797;43.864;21.410;2023-09-19T07:02:54;100014.69;;;23.39;54.21
80482;BME280;69797;43.864;21.410;2023-09-19T07:05:21;100026.47;;;23.50;53.78
80482;BME280;69797;43.864;21.410;2023-09-19T07:07:48;100005.56;;;23.47;54.63
80482;BME280;69797;43.864;21.410;2023-09-19T07:10:16;100031.13;;;23.68;54.54
80482;BME280;69797;43.864;21.410;2023-09-19T07:12:43;100011.75;;;23.72;55.57
80482;BME280;69797;43.864;21.410;2023-09-19T07:15:10;100013.22;;;24.05;53.90
80482;BME280;69797;43.864;21.410;2023-09-19T07:17:36;100014.81;;;24.20;53.72
80482;BME280;69797;43.864;21.410;2023-09-19T07:20:04;100024.31;;;24.33;53.89
80482;BME280;69797;43.864;21.410;2023-09-19T07:22:37;100038.56;;;24.45;53.39
80482;BME280;69797;43.864;21.410;2023-09-19T07:25:06;100033.50;;;24.47;53.35
80482;BME280;69797;43.864;21.410;2023-09-19T07:27:33;100048.16;;;24.53;53.51
80482;BME280;69797;43.864;21.410;2023-09-19T07:30:00;100039.59;;;24.49;53.48
80482;BME280;69797;43.864;21.410;2023-09-19T07:32:27;100040.53;;;24.45;53.74
80482;BME280;69797;43.864;21.410;2023-09-19T07:34:54;100040.34;;;24.41;53.41
80482;BME280;69797;43.864;21.410;2023-09-19T07:37:21;100058.34;;;24.49;53.14
80482;BME280;69797;43.864;21.410;2023-09-19T07:39:48;100051.56;;;24.41;53.29
80482;BME280;69797;43.864;21.410;2023-09-19T07:42:16;100062.13;;;24.44;53.43
80482;BME280;69797;43.864;21.410;2023-09-19T07:45:04;100059.00;;;24.46;52.91
80482;BME280;69797;43.864;21.410;2023-09-19T07:47:32;100042.41;;;24.35;53.28
80482;BME280;69797;43.864;21.410;2023-09-19T07:49:59;100055.50;;;24.40;53.29
80482;BME280;69797;43.864;21.410;2023-09-19T07:52:29;100050.13;;;24.30;53.24
80482;BME280;69797;43.864;21.410;2023-09-19T07:54:56;100017.34;;;24.08;53.20
80482;BME280;69797;43.864;21.410;2023-09-19T07:57:24;100024.72;;;24.04;53.17
80482;BME280;69797;43.864;21.410;2023-09-19T07:59:51;100007.69;;;23.78;53.74
80482;BME280;69797;43.864;21.410;2023-09-19T08:02:18;100021.47;;;23.74;54.19
80482;BME280;69797;43.864;21.410;2023-09-19T08:04:45;100012.78;;;23.62;54.48
80482;BME280;69797;43.864;21.410;2023-09-19T08:07:13;100032.66;;;23.60;54.82
80482;BME280;69797;43.864;21.410;2023-09-19T08:09:40;100049.13;;;23.62;55.13
80482;BME280;69797;43.864;21.410;2023-09-19T08:12:07;100040.00;;;23.56;55.33
80482;BME280;69797;43.864;21.410;2023-09-19T08:14:38;100053.06;;;23.75;55.34
80482;BME280;69797;43.864;21.410;2023-09-19T08:17:08;100041.25;;;23.78;54.55
80482;BME280;69797;43.864;21.410;2023-09-19T08:19:35;100026.94;;;23.93;54.96
80482;BME280;69797;43.864;21.410;2023-09-19T08:22:03;100020.34;;;24.11;54.37
80482;BME280;69797;43.864;21.410;2023-09-19T08:24:30;100040.28;;;24.32;54.84
80482;BME280;69797;43.864;21.410;2023-09-19T08:26:57;100019.81;;;24.32;54.04
80482;BME280;69797;43.864;21.410;2023-09-19T08:29:25;100032.84;;;24.50;53.89
80482;BME280;69797;43.864;21.410;2023-09-19T08:31:55;100040.78;;;24.79;53.88
80482;BME280;69797;43.864;21.410;2023-09-19T08:34:25;100016.44;;;24.88;52.68
80482;BME280;69797;43.864;21.410;2023-09-19T08:36:55;100023.19;;;25.19;52.90
80482;BME280;69797;43.864;21.410;2023-09-19T08:39:25;100006.91;;;25.29;52.32
80482;BME280;69797;43.864;21.410;2023-09-19T08:42:01;100009.13;;;25.67;51.53
80482;BME280;69797;43.864;21.410;2023-09-19T08:44:28;100011.81;;;26.42;51.87
80482;BME280;69797;43.864;21.410;2023-09-19T08:47:10;100010.25;;;27.64;49.70
80482;BME280;69797;43.864;21.410;2023-09-19T08:52:23;100019.91;;;30.15;47.80
80482;BME280;69797;43.864;21.410;2023-09-19T08:54:52;100014.81;;;31.21;47.90
80482;BME280;69797;43.864;21.410;2023-09-19T08:57:22;100012.56;;;32.32;42.78
80482;BME280;69797;43.864;21.410;2023-09-19T08:59:50;100001.16;;;32.90;44.89
80482;BME280;69797;43.864;21.410;2023-09-19T09:02:18;100020.41;;;33.47;45.07
80482;BME280;69797;43.864;21.410;2023-09-19T09:04:48;100003.81;;;33.75;42.18
80482;BME280;69797;43.864;21.410;2023-09-19T09:07:22;100000.31;;;33.85;43.53
80482;BME280;69797;43.864;21.410;2023-09-19T09:09:49;99990.31;;;33.69;43.00
80482;BME280;69797;43.864;21.410;2023-09-19T09:12:16;99987.41;;;33.38;41.38
80482;BME280;69797;43.864;21.410;2023-09-19T09:14:45;99982.59;;;32.73;41.29
80482;BME280;69797;43.864;21.410;2023-09-19T09:17:17;100000.09;;;32.37;41.30
80482;BME280;69797;43.864;21.410;2023-09-19T09:19:47;99995.47;;;31.90;41.68
80482;BME280;69797;43.864;21.410;2023-09-19T09:22:14;100002.38;;;31.57;40.69
80482;BME280;69797;43.864;21.410;2023-09-19T09:24:57;99991.97;;;31.29;40.78
80482;BME280;69797;43.864;21.410;2023-09-19T09:27:24;99982.13;;;31.08;40.53
80482;BME280;69797;43.864;21.410;2023-09-19T09:29:52;99968.47;;;30.66;40.58
80482;BME280;69797;43.864;21.410;2023-09-19T09:32:29;99973.34;;;29.97;39.85
80482;BME280;69797;43.864;21.410;2023-09-19T09:34:58;99974.44;;;29.80;42.17
80482;BME280;69797;43.864;21.410;2023-09-19T09:37:28;99971.31;;;29.69;42.06
80482;BME280;69797;43.864;21.410;2023-09-19T09:40:00;99983.22;;;29.62;42.46
80482;BME280;69797;43.864;21.410;2023-09-19T09:42:43;99982.97;;;29.55;41.53
80482;BME280;69797;43.864;21.410;2023-09-19T09:45:22;99966.75;;;29.28;41.73
80482;BME280;69797;43.864;21.410;2023-09-19T09:48:24;99971.75;;;28.85;42.64
80482;BME280;69797;43.864;21.410;2023-09-19T09:50:58;99966.91;;;28.74;41.80
80482;BME280;69797;43.864;21.410;2023-09-19T09:53:30;99949.06;;;28.69;44.30
80482;BME280;69797;43.864;21.410;2023-09-19T09:56:06;99967.25;;;28.72;43.76
80482;BME280;69797;43.864;21.410;2023-09-19T09:58:36;99942.25;;;28.58;43.73
80482;BME280;69797;43.864;21.410;2023-09-19T10:01:04;99945.19;;;28.62;43.48
80482;BME280;69797;43.864;21.410;2023-09-19T10:03:42;99935.16;;;28.52;44.25
80482;BME280;69797;43.864;21.410;2023-09-19T10:06:18;99944.00;;;28.63;44.13
80482;BME280;69797;43.864;21.410;2023-09-19T10:09:07;99935.28;;;28.56;43.45
80482;BME280;69797;43.864;21.410;2023-09-19T10:11:42;99927.66;;;28.56;43.16
80482;BME280;69797;43.864;21.410;2023-09-19T10:14:11;99934.09;;;28.44;44.83
80482;BME280;69797;43.864;21.410;2023-09-19T10:16:48;99928.66;;;28.39;44.40
80482;BME280;69797;43.864;21.410;2023-09-19T10:22:05;99923.91;;;28.52;43.81
80482;BME280;69797;43.864;21.410;2023-09-19T10:24:36;99912.38;;;28.45;44.30
80482;BME280;69797;43.864;21.410;2023-09-19T10:27:25;99928.47;;;28.57;42.81
80482;BME280;69797;43.864;21.410;2023-09-19T10:29:53;99896.25;;;28.33;43.88
80482;BME280;69797;43.864;21.410;2023-09-19T10:32:22;99925.41;;;28.50;43.52
80482;BME280;69797;43.864;21.410;2023-09-19T10:34:51;99922.13;;;28.48;42.80
80482;BME280;69797;43.864;21.410;2023-09-19T10:37:24;99932.44;;;28.43;43.56
80482;BME280;69797;43.864;21.410;2023-09-19T10:39:55;99928.59;;;28.48;43.57
80482;BME280;69797;43.864;21.410;2023-09-19T10:42:23;99916.50;;;28.48;44.09
80482;BME280;69797;43.864;21.410;2023-09-19T10:44:57;99887.81;;;28.33;43.19
80482;BME280;69797;43.864;21.410;2023-09-19T10:47:26;99915.91;;;28.54;44.81
80482;BME280;69797;43.864;21.410;2023-09-19T10:49:53;99910.75;;;28.68;44.38
80482;BME280;69797;43.864;21.410;2023-09-19T10:52:24;99898.44;;;28.85;44.34
80482;BME280;69797;43.864;21.410;2023-09-19T10:54:53;99903.19;;;29.06;43.81
80482;BME280;69797;43.864;21.410;2023-09-19T10:57:24;99896.56;;;29.26;43.75
80482;BME280;69797;43.864;21.410;2023-09-19T11:00:06;99891.13;;;29.46;44.07
80482;BME280;69797;43.864;21.410;2023-09-19T11:05:39;99867.84;;;29.61;43.49
80482;BME280;69797;43.864;21.410;2023-09-19T11:08:10;99856.31;;;29.66;42.87
80482;BME280;69797;43.864;21.410;2023-09-19T11:10:49;99867.13;;;29.92;42.74
80482;BME280;69797;43.864;21.410;2023-09-19T11:13:27;99865.81;;;30.02;41.35
80482;BME280;69797;43.864;21.410;2023-09-19T11:18:53;99859.56;;;29.96;42.91
80482;BME280;69797;43.864;21.410;2023-09-19T11:27:09;99843.41;;;29.81;41.04
80482;BME280;69797;43.864;21.410;2023-09-19T11:29:36;99834.13;;;29.80;42.72
80482;BME280;69797;43.864;21.410;2023-09-19T11:32:04;99833.66;;;29.78;42.20
80482;BME280;69797;43.864;21.410;2023-09-19T11:40:08;99816.81;;;29.82;40.94
80482;BME280;69797;43.864;21.410;2023-09-19T11:42:46;99797.25;;;29.73;42.84
80482;BME280;69797;43.864;21.410;2023-09-19T11:48:24;99799.16;;;29.85;42.68
80482;BME280;69797;43.864;21.410;2023-09-19T11:50:54;99799.06;;;29.81;43.05
80482;BME280;69797;43.864;21.410;2023-09-19T11:53:22;99773.97;;;29.64;42.38
80482;BME280;69797;43.864;21.410;2023-09-19T11:55:50;99788.28;;;29.71;41.39
80482;BME280;69797;43.864;21.410;2023-09-19T11:58:19;99782.91;;;29.66;43.24
80482;BME280;69797;43.864;21.410;2023-09-19T12:00:54;99786.56;;;29.67;43.12
80482;BME280;69797;43.864;21.410;2023-09-19T12:03:29;99782.28;;;29.73;42.50
80482;BME280;69797;43.864;21.410;2023-09-19T12:05:58;99761.69;;;29.72;42.84
80482;BME280;69797;43.864;21.410;2023-09-19T12:08:25;99772.03;;;29.80;43.70
80482;BME280;69797;43.864;21.410;2023-09-19T12:10:53;99744.50;;;29.77;43.42
80482;BME280;69797;43.864;21.410;2023-09-19T12:13:21;99763.28;;;29.85;42.46
80482;BME280;69797;43.864;21.410;2023-09-19T12:15:48;99763.00;;;29.91;41.92
80482;BME280;69797;43.864;21.410;2023-09-19T12:18:28;99757.16;;;29.83;43.26
80482;BME280;69797;43.864;21.410;2023-09-19T12:20:56;99757.34;;;29.75;42.98
80482;BME280;69797;43.864;21.410;2023-09-19T12:23:24;99750.22;;;29.65;43.42
80482;BME280;69797;43.864;21.410;2023-09-19T12:25:54;99767.81;;;29.74;43.27
80482;BME280;69797;43.864;21.410;2023-09-19T12:28:27;99773.47;;;29.74;43.11
80482;BME280;69797;43.864;21.410;2023-09-19T12:31:06;99751.97;;;29.70;41.42
80482;BME280;69797;43.864;21.410;2023-09-19T12:33:34;99760.78;;;29.68;41.60
80482;BME280;69797;43.864;21.410;2023-09-19T12:36:19;99752.06;;;29.45;41.37
80482;BME280;69797;43.864;21.410;2023-09-19T12:38:51;99775.44;;;29.46;42.44
80482;BME280;69797;43.864;21.410;2023-09-19T12:41:20;99754.47;;;29.31;42.51
80482;BME280;69797;43.864;21.410;2023-09-19T12:43:48;99761.25;;;29.30;42.34
80482;BME280;69797;43.864;21.410;2023-09-19T12:46:22;99753.69;;;29.18;42.31
80482;BME280;69797;43.864;21.410;2023-09-19T12:49:15;99777.53;;;29.21;42.90
80482;BME280;69797;43.864;21.410;2023-09-19T12:51:44;99766.63;;;29.07;42.80
80482;BME280;69797;43.864;21.410;2023-09-19T12:54:11;99790.94;;;29.11;42.68
80482;BME280;69797;43.864;21.410;2023-09-19T12:56:40;99771.34;;;28.90;43.26
80482;BME280;69797;43.864;21.410;2023-09-19T12:59:14;99777.59;;;28.84;43.35
80482;BME280;69797;43.864;21.410;2023-09-19T13:01:42;99787.09;;;28.91;43.64
80482;BME280;69797;43.864;21.410;2023-09-19T13:04:14;99798.00;;;28.93;43.50
80482;BME280;69797;43.864;21.410;2023-09-19T13:06:52;99787.44;;;28.90;43.61
80482;BME280;69797;43.864;21.410;2023-09-19T13:09:21;99791.91;;;28.91;43.89
80482;BME280;69797;43.864;21.410;2023-09-19T13:11:48;99787.22;;;28.83;43.27
80482;BME280;69797;43.864;21.410;2023-09-19T13:14:22;99793.47;;;28.76;43.47
80482;BME280;69797;43.864;21.410;2023-09-19T13:19:48;99787.81;;;28.64;44.07
80482;BME280;69797;43.864;21.410;2023-09-19T13:22:42;99783.34;;;28.51;44.07
80482;BME280;69797;43.864;21.410;2023-09-19T13:25:14;99787.72;;;28.48;44.53
80482;BME280;69797;43.864;21.410;2023-09-19T13:27:52;99803.19;;;28.30;44.16
80482;BME280;69797;43.864;21.410;2023-09-19T13:30:22;99764.41;;;28.02;44.69
80482;BME280;69797;43.864;21.410;2023-09-19T13:32:49;99763.34;;;27.94;45.01
80482;BME280;69797;43.864;21.410;2023-09-19T13:35:16;99737.03;;;27.78;45.28
80482;BME280;69797;43.864;21.410;2023-09-19T13:37:43;99762.41;;;27.90;45.29
80482;BME280;69797;43.864;21.410;2023-09-19T13:40:12;99746.91;;;27.84;45.47
80482;BME280;69797;43.864;21.410;2023-09-19T13:42:40;99748.31;;;27.90;45.46